Strona główna
METAR-TAF:

METAR-TAF

Lotnisko :

Port lotniczy Sultan Aji Muhammad Sulaiman

Balikpapan, Indonezja

Szerokość geograficzna: 01-16-06S, Długość geograficzna: 116-53-40E, wysokość: 4 m

METAR: brakujący

czas: 11:21 (04:21 UTC)

Prognoza

Raport powstał 5 godziny i 21 minut temu, godzina 23:00 UTC
Prognoza ważna od 11 godzina 00 UTC do 12 godzina 06 UTC
Wiatr 4 kt od północno-północny zachód
Widzialność 10 km lub więcej
Mało chmury na wysokości 1700 ft, Cumulonimbus.
Rozproszone chmury na wysokości 1800 ft
Przejściowo
od 11 godzina 03 UTC do 11 godzina 06 UTC
Widzialność: 3000 m
burza, deszcz
Stopniowe zmiany
od 11 godzina 07 UTC do 11 godzina 09 UTC
Rozproszone chmury na wysokości 1800 ft

TAF: WALL 102300Z 1100/1206 33004KT 9999 FEW017CB SCT018 TEMPO 1103/1106 3000 TSRA BECMG 1107/1109 SCT018

Obserwacja i prognoza pogody dla ponad 4000 lotnisk (raport METAR i TAF).

Dostępne stacje oznaczono żółtymi i czerwonymi punktami na mapie.

Najedź kursorem aby zobaczyć nazwę stacji.

Kliknij aby zobaczyć obserwacje i prognozy pogody.

Aby zmienić mapę: kliknij na zielony przycisk z czarnym krzyżykiem, aby powiększyć; na zielony przycisk z myślnikiem, aby pomniejszyć; na zielone strzałki, aby przejść do map sąsiednich.


METAR-TAF: